Time;durP1;ratioP1;P1;durP2;ratioP2;P2;SDS_P1;SDS_P2;PMS_P1;PMS_P2;Temp;Humidity;BMP_temperature;BMP_pressure;BME280_temperature;BME280_humidity;BME280_pressure;Samples;Min_cycle;Max_cycle;Signal;HPM_P1;HPM_P2
2021/10/28 00:13:50;;;;;;;79.67;47.93;;;;;;;0.92;100.00;101867.77;1820531;78;21026;-91
2021/10/28 00:16:21;;;;;;;79.85;47.75;;;;;;;0.91;100.00;101863.53;1816521;78;21019;-91
2021/10/28 00:18:48;;;;;;;77.87;50.25;;;;;;;0.91;100.00;101861.39;1816541;78;21058;-92
2021/10/28 00:21:14;;;;;;;77.42;49.53;;;;;;;0.93;100.00;101858.38;1815889;78;21145;-92
2021/10/28 00:23:46;;;;;;;78.55;49.50;;;;;;;0.89;100.00;101855.00;1820458;78;21038;-91
2021/10/28 00:26:12;;;;;;;81.90;50.40;;;;;;;0.82;100.00;101848.69;1815762;78;21066;-91
2021/10/28 00:28:40;;;;;;;72.62;45.10;;;;;;;0.74;100.00;101844.97;1792476;78;21062;-92
2021/10/28 00:31:09;;;;;;;73.07;46.10;;;;;;;0.66;100.00;101842.50;1820895;78;21097;-90
2021/10/28 00:33:37;;;;;;;68.70;45.78;;;;;;;0.59;100.00;101847.30;1820500;78;21137;-91
2021/10/28 00:36:07;;;;;;;67.55;43.58;;;;;;;0.54;100.00;101851.66;1793226;78;21059;-91
2021/10/28 00:38:34;;;;;;;73.75;43.55;;;;;;;0.45;100.00;101852.19;1793337;78;21165;-90
2021/10/28 00:41:03;;;;;;;71.95;45.60;;;;;;;0.37;100.00;101853.14;1820349;78;21516;-91
2021/10/28 00:43:32;;;;;;;81.22;47.03;;;;;;;0.26;100.00;101851.58;1820380;78;21019;-92
2021/10/28 00:46:01;;;;;;;71.82;45.20;;;;;;;0.20;100.00;101856.75;1820597;78;21136;-92
2021/10/28 00:48:28;;;;;;;70.45;45.70;;;;;;;0.11;100.00;101855.16;1819969;78;20964;-91
2021/10/28 00:50:57;;;;;;;64.85;42.78;;;;;;;0.04;100.00;101853.98;1820172;78;21278;-91
2021/10/28 00:53:24;;;;;;;75.45;44.38;;;;;;;-0.05;100.00;101845.95;1766983;78;21484;-92
2021/10/28 00:55:55;;;;;;;63.35;41.23;;;;;;;-0.08;100.00;101849.84;1819820;78;21489;-91
2021/10/28 00:58:23;;;;;;;55.93;37.33;;;;;;;-0.12;100.00;101852.00;1820601;78;21145;-93
2021/10/28 01:00:52;;;;;;;60.88;39.88;;;;;;;-0.17;100.00;101849.08;1820281;78;21217;-90
2021/10/28 01:03:21;;;;;;;59.08;36.68;;;;;;;-0.17;100.00;101852.91;1820513;78;21909;-92
2021/10/28 01:05:50;;;;;;;64.17;39.75;;;;;;;-0.16;100.00;101857.14;1820140;78;21002;-93
2021/10/28 01:08:17;;;;;;;56.68;37.75;;;;;;;-0.14;100.00;101846.91;1820360;78;21023;-94
2021/10/28 01:10:48;;;;;;;61.05;37.50;;;;;;;-0.10;100.00;101850.28;1820413;78;21733;-93
2021/10/28 01:13:18;;;;;;;59.08;37.45;;;;;;;-0.09;100.00;101851.98;1819621;78;21074;-93
2021/10/28 01:15:49;;;;;;;61.35;38.30;;;;;;;-0.09;100.00;101851.98;1820112;78;21556;-92
2021/10/28 01:18:18;;;;;;;59.67;36.35;;;;;;;-0.08;100.00;101857.08;1820151;78;21015;-92
2021/10/28 01:20:50;;;;;;;65.32;37.75;;;;;;;-0.07;100.00;101852.79;1819978;78;21560;-92
2021/10/28 01:23:21;;;;;;;59.95;35.78;;;;;;;-0.07;100.00;101850.23;1819981;78;21160;-91
2021/10/28 01:26:07;;;;;;;53.42;34.40;;;;;;;-0.06;100.00;101844.25;1819226;78;21113;-90
2021/10/28 01:28:38;;;;;;;51.58;34.55;;;;;;;-0.03;100.00;101838.66;1792477;78;21078;-91
2021/10/28 01:31:10;;;;;;;51.63;33.53;;;;;;;0.00;100.00;101844.20;1820079;78;20999;-90
2021/10/28 01:33:40;;;;;;;54.15;34.23;;;;;;;-0.01;100.00;101835.66;1816705;78;21062;-91
2021/10/28 01:36:10;;;;;;;58.58;37.58;;;;;;;-0.06;100.00;101831.03;1820112;78;21488;-92
2021/10/28 01:38:41;;;;;;;53.35;33.95;;;;;;;-0.10;100.00;101838.31;1819930;78;20943;-91
2021/10/28 01:41:08;;;;;;;55.78;35.03;;;;;;;-0.13;100.00;101843.48;1767645;78;20987;-92
2021/10/28 01:43:35;;;;;;;52.10;33.70;;;;;;;-0.16;100.00;101839.22;1820470;78;21865;-93
2021/10/28 01:46:05;;;;;;;53.85;34.73;;;;;;;-0.16;100.00;101843.06;1820246;78;21587;-93
2021/10/28 01:48:35;;;;;;;56.30;35.70;;;;;;;-0.16;100.00;101843.51;1820603;78;21119;-94
2021/10/28 01:51:03;;;;;;;61.77;39.57;;;;;;;-0.19;100.00;101851.20;1820218;78;21128;-92
2021/10/28 01:53:30;;;;;;;57.30;36.38;;;;;;;-0.25;100.00;101850.86;1820415;78;22104;-92
2021/10/28 01:56:00;;;;;;;52.78;34.25;;;;;;;-0.30;100.00;101855.16;1820327;78;21113;-92
2021/10/28 01:58:27;;;;;;;53.85;32.80;;;;;;;-0.33;100.00;101856.05;1811609;78;21076;-94
2021/10/28 02:00:54;;;;;;;53.50;33.13;;;;;;;-0.35;100.00;101860.32;1820604;78;22491;-93
2021/10/28 02:03:26;;;;;;;53.70;34.27;;;;;;;-0.33;100.00;101865.00;1820358;78;21555;-94
2021/10/28 02:05:53;;;;;;;51.15;33.33;;;;;;;-0.33;100.00;101870.13;1819952;78;21097;-93
2021/10/28 02:08:21;;;;;;;50.67;33.50;;;;;;;-0.33;100.00;101857.33;1817314;78;20992;-94
2021/10/28 02:10:48;;;;;;;55.98;35.78;;;;;;;-0.29;100.00;101861.15;1816990;79;21004;-94
2021/10/28 02:13:19;;;;;;;59.80;37.08;;;;;;;-0.28;100.00;101862.84;1816772;79;21015;-93
2021/10/28 02:15:46;;;;;;;62.27;35.80;;;;;;;-0.30;100.00;101868.41;1817083;78;20992;-93
2021/10/28 02:18:14;;;;;;;65.52;36.90;;;;;;;-0.33;100.00;101870.13;1817105;78;21019;-92
2021/10/28 02:20:41;;;;;;;64.50;35.65;;;;;;;-0.32;100.00;101872.23;1787212;78;21564;-93
2021/10/28 02:23:10;;;;;;;62.35;37.98;;;;;;;-0.30;100.00;101862.84;1817135;78;22429;-90
2021/10/28 02:25:37;;;;;;;91.15;48.50;;;;;;;-0.28;100.00;101864.96;1817383;78;21100;-93
2021/10/28 02:28:05;;;;;;;93.62;52.85;;;;;;;-0.28;100.00;101862.84;1817055;78;20995;-93
2021/10/28 02:30:33;;;;;;;96.20;50.35;;;;;;;-0.34;100.00;101860.75;1817439;79;21611;-92
2021/10/28 02:33:00;;;;;;;95.38;49.25;;;;;;;-0.39;100.00;101863.79;1787130;78;21587;-91
2021/10/28 02:35:27;;;;;;;93.05;48.50;;;;;;;-0.47;100.00;101868.13;1817469;78;21113;-92
2021/10/28 02:37:54;;;;;;;94.20;51.73;;;;;;;-0.58;100.00;101866.95;1817620;78;21881;-93
2021/10/28 02:40:21;;;;;;;97.82;53.02;;;;;;;-0.63;100.00;101878.91;1817348;79;21453;-93
2021/10/28 02:42:48;;;;;;;99.47;50.50;;;;;;;-0.67;100.00;101877.25;1817459;78;21814;-94
2021/10/28 02:45:16;;;;;;;91.12;49.55;;;;;;;-0.69;100.00;101881.52;1817039;78;21030;-94
2021/10/28 02:47:43;;;;;;;98.27;52.45;;;;;;;-0.68;100.00;101881.50;1817096;78;21093;-91
2021/10/28 02:50:10;;;;;;;97.80;51.68;;;;;;;-0.66;100.00;101877.67;1817054;78;21191;-91
2021/10/28 02:52:38;;;;;;;111.10;53.35;;;;;;;-0.66;100.00;101882.80;1816942;78;21039;-89
2021/10/28 02:55:07;;;;;;;98.27;53.85;;;;;;;-0.71;100.00;101877.71;1817192;79;21101;-91
2021/10/28 02:57:34;;;;;;;103.47;55.52;;;;;;;-0.76;100.00;101877.31;1817249;79;21537;-95
2021/10/28 03:00:01;;;;;;;104.20;52.03;;;;;;;-0.82;100.00;101879.48;1787142;79;21572;-93
2021/10/28 03:02:28;;;;;;;97.17;52.65;;;;;;;-0.91;100.00;101886.80;1817165;79;21143;-93
2021/10/28 03:04:56;;;;;;;85.17;46.05;;;;;;;-0.96;100.00;101887.24;1817250;78;21654;-93
2021/10/28 03:07:24;;;;;;;87.65;45.45;;;;;;;-1.04;100.00;101892.42;1817168;78;21812;-94
2021/10/28 03:09:51;;;;;;;76.22;42.15;;;;;;;-1.06;100.00;101894.58;1816931;78;21007;-94
2021/10/28 03:12:18;;;;;;;88.03;46.02;;;;;;;-1.06;100.00;101887.74;1817024;79;21160;-95
2021/10/28 03:14:52;;;;;;;91.72;47.62;;;;;;;-1.04;100.00;101889.03;1807779;78;21118;-95
2021/10/28 03:25:36;;;;;;;75.50;39.85;;;;;;;-1.17;100.00;101889.09;1815701;79;20991;-90
2021/10/28 03:27:39;;;;;;;99.47;48.95;;;;;;;-1.14;100.00;101890.77;1812344;78;21224;-89
2021/10/28 03:30:08;;;;;;;89.07;46.83;;;;;;;-1.06;100.00;101892.86;1816832;79;21039;-89
2021/10/28 03:32:36;;;;;;;90.87;46.68;;;;;;;-1.10;100.00;101897.58;1812557;78;21026;-89
2021/10/28 03:35:11;;;;;;;85.22;47.83;;;;;;;-1.18;100.00;101900.61;1817001;78;20983;-90
2021/10/28 03:37:42;;;;;;;92.22;47.05;;;;;;;-1.22;100.00;101899.78;1816979;78;21011;-90
2021/10/28 03:40:26;;;;;;;80.03;41.90;;;;;;;-1.25;100.00;101910.00;1787138;79;21310;-89
2021/10/28 03:43:13;;;;;;;86.28;41.37;;;;;;;-1.26;100.00;101917.25;1808503;78;21685;-88
2021/10/28 03:53:42;;;;;;;94.67;50.52;;;;;;;-0.90;100.00;101895.31;1806653;79;20990;-86
2021/10/28 03:58:53;;;;;;;79.30;42.17;;;;;;;-0.80;100.00;101892.67;1806401;78;21084;-86
2021/10/28 04:07:03;;;;;;;80.92;41.83;;;;;;;-0.24;100.00;101901.63;1813119;78;21121;-85
2021/10/28 04:31:00;;;;;;;84.30;40.10;;;;;;;1.78;100.00;101897.20;1783306;79;21111;-85
2021/10/28 04:33:29;;;;;;;74.35;41.68;;;;;;;1.89;100.00;101897.42;1800384;79;21608;-84
2021/10/28 04:35:55;;;;;;;76.42;42.00;;;;;;;2.01;100.00;101903.22;1770788;79;21044;-85
2021/10/28 04:38:22;;;;;;;74.72;44.27;;;;;;;2.11;100.00;101897.04;1768582;79;21072;-84
2021/10/28 04:40:50;;;;;;;68.00;42.95;;;;;;;2.16;100.00;101897.79;1796800;78;21976;-85
2021/10/28 04:43:17;;;;;;;84.03;45.58;;;;;;;2.30;100.00;101904.37;1760856;79;21021;-85
2021/10/28 04:45:44;;;;;;;76.47;41.77;;;;;;;2.45;100.00;101907.92;1781226;79;21108;-84
2021/10/28 04:48:12;;;;;;;83.97;45.20;;;;;;;2.45;100.00;101907.92;1810662;79;21059;-85
2021/10/28 04:50:39;;;;;;;107.78;52.58;;;;;;;2.53;100.00;101910.34;1781982;80;21073;-84
2021/10/28 04:53:07;;;;;;;97.25;50.15;;;;;;;2.47;100.00;101906.17;1780966;79;21539;-84
2021/10/28 04:55:35;;;;;;;100.75;47.15;;;;;;;2.32;100.00;101902.62;1780107;80;21034;-83
2021/10/28 04:58:04;;;;;;;87.67;45.80;;;;;;;2.18;100.00;101903.75;1780320;80;21805;-84
2021/10/28 05:00:32;;;;;;;89.30;44.23;;;;;;;2.08;100.00;101906.08;1753442;80;21045;-83
2021/10/28 05:03:00;;;;;;;73.90;43.17;;;;;;;2.03;100.00;101910.47;1752816;80;21101;-84
2021/10/28 05:05:27;;;;;;;91.50;47.25;;;;;;;2.02;100.00;101915.20;1783727;80;21511;-83
2021/10/28 05:07:54;;;;;;;84.77;49.03;;;;;;;1.91;100.00;101912.83;1775392;80;21101;-84
2021/10/28 05:10:21;;;;;;;89.75;49.77;;;;;;;1.91;100.00;101912.83;1767398;81;21998;-83
2021/10/28 05:12:50;;;;;;;106.63;50.25;;;;;;;1.82;100.00;101920.24;1769940;80;21042;-83
2021/10/28 05:15:17;;;;;;;93.10;49.73;;;;;;;1.74;100.00;101925.95;1771822;81;21050;-83
2021/10/28 05:17:44;;;;;;;87.35;49.42;;;;;;;1.68;100.00;101923.49;1771874;81;21057;-83
2021/10/28 05:20:11;;;;;;;100.53;54.75;;;;;;;1.69;100.00;101920.89;1747871;81;21074;-83
2021/10/28 05:22:40;;;;;;;86.92;47.90;;;;;;;1.67;100.00;101920.51;1755784;80;21057;-83
2021/10/28 05:25:08;;;;;;;98.75;52.55;;;;;;;1.62;100.00;101928.73;1791831;80;21601;-83
2021/10/28 05:27:35;;;;;;;107.12;53.17;;;;;;;1.61;100.00;101920.17;1741352;80;21563;-83
2021/10/28 05:30:05;;;;;;;97.25;52.65;;;;;;;1.61;100.00;101924.47;1786208;80;21053;-84
2021/10/28 05:32:33;;;;;;;88.52;49.10;;;;;;;1.62;100.00;101928.73;1790465;80;21015;-83
2021/10/28 05:35:00;;;;;;;77.42;46.55;;;;;;;1.66;100.00;101938.07;1790782;79;21151;-84
2021/10/28 05:37:28;;;;;;;84.30;47.35;;;;;;;1.82;100.00;101939.51;1791600;80;21498;-83
2021/10/28 05:39:59;;;;;;;81.75;47.78;;;;;;;1.98;100.00;101945.24;1792120;80;21009;-84
2021/10/28 05:42:25;;;;;;;84.50;50.00;;;;;;;2.16;100.00;101934.22;1772286;80;21045;-83
2021/10/28 05:44:54;;;;;;;78.35;45.63;;;;;;;2.32;100.00;101929.62;1744615;80;21404;-84
2021/10/28 05:47:21;;;;;;;61.48;41.53;;;;;;;2.61;100.00;101938.47;1731406;81;21784;-83
2021/10/28 05:49:48;;;;;;;57.38;39.58;;;;;;;2.61;100.00;101938.47;1776445;80;21652;-82
2021/10/28 05:52:16;;;;;;;57.83;38.30;;;;;;;2.78;100.00;101941.53;1785712;79;21546;-83
2021/10/28 05:54:44;;;;;;;52.80;36.38;;;;;;;3.07;100.00;101937.92;1764418;81;21026;-83
2021/10/28 05:57:12;;;;;;;54.08;38.17;;;;;;;3.07;100.00;101937.92;1787571;80;21053;-83
2021/10/28 05:59:44;;;;;;;56.58;36.80;;;;;;;3.19;100.00;101937.66;1736230;81;21825;-84
2021/10/28 06:02:13;;;;;;;49.88;35.60;;;;;;;3.31;100.00;101936.08;1739377;80;40567;-83
2021/10/28 06:04:41;;;;;;;46.33;33.38;;;;;;;3.43;100.00;101937.97;1800112;79;21068;-83
2021/10/28 06:07:08;;;;;;;46.08;33.10;;;;;;;3.55;100.00;101944.55;1790733;79;21006;-84
2021/10/28 06:09:35;;;;;;;43.95;32.25;;;;;;;3.62;100.00;101952.53;1777841;79;21073;-84
2021/10/28 06:12:05;;;;;;;43.13;32.58;;;;;;;3.69;100.00;101953.20;1786386;80;21081;-84
2021/10/28 06:14:32;;;;;;;40.43;31.93;;;;;;;3.75;100.00;101954.36;1784053;79;21029;-84
2021/10/28 06:17:14;;;;;;;41.00;31.93;;;;;;;3.83;100.00;101964.46;1782134;80;21093;-85
2021/10/28 06:19:36;;;;;;;45.10;32.83;;;;;;;3.89;100.00;101955.28;1791501;79;21037;-83
2021/10/28 06:22:05;;;;;;;94.87;36.40;;;;;;;4.00;100.00;101951.16;1776653;78;21102;-88
2021/10/28 06:24:33;;;;;;;59.23;34.80;;;;;;;4.16;100.00;101954.17;1759396;80;22139;-87
2021/10/28 06:27:00;;;;;;;47.15;34.00;;;;;;;4.48;100.00;101936.97;1761478;80;21028;-86
2021/10/28 06:29:27;;;;;;;49.70;34.55;;;;;;;4.71;100.00;101922.95;1752617;80;21551;-86
2021/10/28 06:31:57;;;;;;;50.20;35.85;;;;;;;4.89;100.00;101934.45;1777025;79;21041;-87
2021/10/28 06:34:27;;;;;;;52.25;35.70;;;;;;;5.10;100.00;101940.30;1772898;79;21677;-88
2021/10/28 06:37:03;;;;;;;52.03;34.03;;;;;;;5.31;100.00;101949.12;1781222;79;21160;-89
2021/10/28 06:39:27;;;;;;;47.55;34.58;;;;;;;5.45;100.00;101948.23;1774413;80;21535;-87
2021/10/28 06:41:56;;;;;;;62.13;34.38;;;;;;;5.62;100.00;101938.66;1752080;79;21068;-86
2021/10/28 06:44:23;;;;;;;47.17;33.98;;;;;;;5.79;100.00;101945.83;1750711;80;21151;-86
2021/10/28 06:46:51;;;;;;;53.38;37.17;;;;;;;5.90;100.00;101945.46;1770115;79;21104;-86
2021/10/28 06:49:20;;;;;;;52.05;35.95;;;;;;;5.96;100.00;101949.58;1753117;80;21045;-86
2021/10/28 06:51:47;;;;;;;52.30;37.98;;;;;;;5.98;100.00;101964.61;1781380;79;21053;-88
2021/10/28 06:54:23;;;;;;;51.88;39.92;;;;;;;6.01;100.00;101956.75;1749750;79;21547;-86
2021/10/28 07:04:46;;;;;;;103.83;43.38;;;;;;;6.27;100.00;101948.11;1748144;80;21044;-86
2021/10/28 07:07:15;;;;;;;94.47;55.00;;;;;;;6.26;100.00;101947.70;1752001;80;21507;-85
2021/10/28 07:09:47;;;;;;;151.78;87.02;;;;;;;6.31;100.00;101942.37;1759364;80;20974;-86
2021/10/28 07:14:42;;;;;;;359.50;76.57;;;;;;;6.48;100.00;101918.46;1741640;80;21141;-87
2021/10/28 07:22:23;;;;;;;118.40;68.85;;;;;;;6.65;100.00;101906.63;1780760;78;21002;-90
2021/10/28 07:27:20;;;;;;;124.47;77.47;;;;;;;6.72;100.00;101911.53;1786531;78;21720;-89
2021/10/28 07:35:13;;;;;;;72.32;50.45;;;;;;;7.07;100.00;101913.19;1666150;84;21147;-88
2021/10/28 07:57:33;;;;;;;52.88;40.78;;;;;;;7.49;100.00;101880.39;1789025;79;21037;-89
2021/10/28 08:04:51;;;;;;;64.25;46.80;;;;;;;7.63;100.00;101877.23;1780253;79;21076;-88
2021/10/28 08:05:04;;;;;;;177.32;83.17;;;;;;;7.66;100.00;101879.70;1795412;79;21606;-87
2021/10/28 08:18:47;;;;;;;76.57;56.85;;;;;;;8.05;100.00;101887.13;1794271;79;21700;-91
2021/10/28 08:23:43;;;;;;;94.30;52.73;;;;;;;8.18;100.00;101888.69;1784108;80;21486;-87
2021/10/28 08:28:54;;;;;;;67.17;50.88;;;;;;;8.35;100.00;101882.77;1798434;78;20997;-88
2021/10/28 08:31:21;;;;;;;75.03;57.23;;;;;;;8.40;100.00;101884.68;1791806;79;20993;-87
2021/10/28 08:33:49;;;;;;;60.98;47.43;;;;;;;8.45;100.00;101878.81;1788377;79;21150;-87
2021/10/28 08:36:37;;;;;;;64.05;47.15;;;;;;;8.56;100.00;101880.11;1782634;80;21026;-87
2021/10/28 08:38:56;;;;;;;56.55;41.33;;;;;;;8.68;100.00;101863.50;1752319;81;21070;-86
2021/10/28 08:41:24;;;;;;;55.58;42.78;;;;;;;8.85;100.00;101863.16;1768737;79;21074;-86
2021/10/28 08:43:55;;;;;;;51.45;39.20;;;;;;;8.95;100.00;101863.11;1776561;79;21014;-87
2021/10/28 08:46:26;;;;;;;54.58;39.95;;;;;;;9.03;100.00;101855.39;1796647;79;21527;-87
2021/10/28 08:49:03;;;;;;;54.23;37.63;;;;;;;9.09;100.00;101868.91;1755524;80;20979;-86
2021/10/28 08:51:47;;;;;;;61.30;41.88;;;;;;;9.14;100.00;101864.34;1784994;80;21859;-87
2021/10/28 08:54:41;;;;;;;55.55;38.50;;;;;;;9.21;100.00;101845.84;1784658;80;20964;-86
2021/10/28 08:59:26;;;;;;;46.33;36.53;;;;;;;9.44;100.00;101830.41;1764683;80;21945;-87
2021/10/28 09:19:46;;;;;;;44.45;29.15;;;;;;;10.18;100.00;101830.89;1753824;81;21032;-84
2021/10/28 09:25:04;;;;;;;39.27;27.87;;;;;;;10.40;100.00;101806.69;1785629;80;21515;-85
2021/10/28 09:27:34;;;;;;;38.55;27.50;;;;;;;10.51;100.00;101799.58;1765330;80;21781;-84
2021/10/28 09:30:12;;;;;;;44.15;33.18;;;;;;;10.66;100.00;101798.33;1765493;80;21041;-84
2021/10/28 09:32:54;;;;;;;41.63;31.02;;;;;;;10.78;100.00;101800.26;1764507;80;20955;-85
2021/10/28 09:44:05;;;;;;;34.05;27.50;;;;;;;10.82;100.00;101790.02;1783190;79;21588;-85
2021/10/28 09:46:47;;;;;;;38.83;28.02;;;;;;;10.92;100.00;101793.41;1760048;80;21022;-85
2021/10/28 09:59:56;;;;;;;38.73;28.60;;;;;;;11.23;100.00;101787.70;1820735;77;21329;-83
2021/10/28 10:02:34;;;;;;;40.35;29.87;;;;;;;11.28;100.00;101789.11;1821320;77;21037;-83
2021/10/28 10:05:21;;;;;;;36.48;28.00;;;;;;;11.32;100.00;101786.70;1785298;79;21025;-83
2021/10/28 10:07:39;;;;;;;41.60;30.02;;;;;;;11.36;100.00;101780.84;1764571;80;21759;-84
2021/10/28 10:10:07;;;;;;;39.23;30.52;;;;;;;11.39;100.00;101779.81;1768729;81;21609;-82
2021/10/28 10:12:37;;;;;;;46.58;32.73;;;;;;;11.40;100.00;101779.70;1768698;80;21081;-85
2021/10/28 10:15:06;;;;;;;47.90;32.67;;;;;;;11.46;100.00;101777.20;1733477;81;21066;-83
2021/10/28 10:17:34;;;;;;;42.58;33.35;;;;;;;11.49;100.00;101767.42;1774139;80;21608;-83
2021/10/28 10:20:45;;;;;;;50.78;35.73;;;;;;;11.49;100.00;101762.20;1749220;81;21040;-83
2021/10/28 13:35:35;;;;;;;49.85;35.08;;;;;;;11.76;100.00;101659.69;1684081;84;21086;-86
2021/10/28 14:22:03;;;;;;;49.45;33.15;;;;;;;11.82;100.00;101654.07;1694528;83;21607;-83
2021/10/28 14:27:21;;;;;;;52.65;34.48;;;;;;;11.80;100.00;101651.20;1689841;83;21507;-83
2021/10/28 14:32:35;;;;;;;47.40;30.75;;;;;;;11.83;100.00;101650.53;1681131;83;21593;-85
2021/10/28 15:28:45;;;;;;;186.45;63.30;;;;;;;11.88;100.00;101659.38;1718949;82;21064;-86
2021/10/28 15:39:09;;;;;;;146.70;60.40;;;;;;;11.75;100.00;101661.07;1676525;84;21105;-86
2021/10/28 15:41:50;;;;;;;106.75;52.10;;;;;;;11.71;100.00;101662.22;1680198;83;21068;-86
2021/10/28 15:47:19;;;;;;;102.07;51.30;;;;;;;11.67;100.00;101660.27;1698123;83;21161;-86
2021/10/28 15:58:42;;;;;;;68.60;40.33;;;;;;;11.41;100.00;101657.99;1704893;83;21152;-85
2021/10/28 16:21:52;;;;;;;80.55;49.23;;;;;;;11.13;100.00;101655.77;1712845;82;21646;-85
2021/10/28 16:24:32;;;;;;;77.65;49.60;;;;;;;11.11;100.00;101663.69;1710693;83;21398;-85
2021/10/28 16:27:11;;;;;;;78.33;50.78;;;;;;;11.11;100.00;101665.44;1629554;87;21616;-87
2021/10/28 16:29:39;;;;;;;83.45;54.58;;;;;;;11.10;100.00;101671.58;1699576;83;21113;-86
2021/10/28 16:32:07;;;;;;;92.88;56.68;;;;;;;11.09;100.00;101669.45;1689299;83;21618;-84
2021/10/28 16:34:35;;;;;;;97.92;59.67;;;;;;;11.07;100.00;101665.27;1715620;82;21113;-85
2021/10/28 16:37:02;;;;;;;98.47;61.05;;;;;;;11.03;100.00;101669.34;1713242;82;21088;-84
2021/10/28 16:39:32;;;;;;;95.47;59.85;;;;;;;11.02;100.00;101669.45;1717387;82;21054;-84
2021/10/28 16:42:00;;;;;;;97.85;60.92;;;;;;;10.99;100.00;101670.48;1733877;82;21053;-85
2021/10/28 16:44:41;;;;;;;92.33;60.60;;;;;;;10.98;100.00;101667.50;1712301;82;21088;-87
2021/10/28 16:47:08;;;;;;;94.80;59.27;;;;;;;10.97;100.00;101669.72;1700290;82;21124;-85
2021/10/28 16:49:37;;;;;;;103.47;64.70;;;;;;;10.96;100.00;101667.22;1711337;82;21170;-87
2021/10/28 16:52:04;;;;;;;110.83;66.53;;;;;;;10.94;100.00;101663.38;1712686;81;21109;-85
2021/10/28 16:54:33;;;;;;;99.62;63.63;;;;;;;10.92;100.00;101662.66;1712420;83;21061;-85
2021/10/28 16:57:04;;;;;;;101.35;65.32;;;;;;;10.90;100.00;101668.42;1711243;83;21617;-85
2021/10/28 16:59:32;;;;;;;102.40;65.32;;;;;;;10.88;100.00;101663.76;1725538;82;21113;-84
2021/10/28 17:02:01;;;;;;;110.90;68.20;;;;;;;10.86;100.00;101669.52;1734877;82;21134;-85
2021/10/28 17:04:30;;;;;;;109.15;66.12;;;;;;;10.84;100.00;101669.62;1709777;82;21189;-84
2021/10/28 17:06:57;;;;;;;105.70;63.85;;;;;;;10.82;100.00;101673.25;1635743;84;21063;-84
2021/10/28 17:09:23;;;;;;;101.38;63.95;;;;;;;10.80;100.00;101669.89;1677946;85;21117;-84
2021/10/28 17:11:52;;;;;;;101.20;64.40;;;;;;;10.79;100.00;101674.72;1675205;84;20970;-84
2021/10/28 17:14:21;;;;;;;97.62;61.15;;;;;;;10.76;100.00;101678.83;1674853;84;21681;-84
2021/10/28 17:16:50;;;;;;;103.47;66.27;;;;;;;10.74;100.00;101681.50;1664851;85;21066;-84
2021/10/28 17:19:19;;;;;;;102.02;61.65;;;;;;;10.70;100.00;101687.36;1666683;84;21742;-84
2021/10/28 17:21:49;;;;;;;94.25;59.18;;;;;;;10.64;100.00;101686.42;1683247;84;21109;-85
2021/10/28 17:24:24;;;;;;;104.20;62.93;;;;;;;10.63;100.00;101695.16;1599435;86;21121;-84
2021/10/28 17:26:49;;;;;;;90.62;58.78;;;;;;;10.59;100.00;101698.88;1632072;84;21077;-84
2021/10/28 17:29:16;;;;;;;85.72;57.30;;;;;;;10.55;100.00;101698.67;1658202;85;21012;-84
2021/10/28 17:31:44;;;;;;;79.25;51.90;;;;;;;10.51;100.00;101701.92;1655449;86;21034;-85
2021/10/28 17:34:19;;;;;;;68.40;46.53;;;;;;;10.46;100.00;101700.05;1698736;82;21821;-85
2021/10/28 17:36:51;;;;;;;63.52;44.13;;;;;;;10.43;100.00;101705.91;1698809;83;21097;-85
2021/10/28 17:39:15;;;;;;;62.35;42.30;;;;;;;10.39;100.00;101700.86;1667158;84;22108;-84
2021/10/28 17:41:45;;;;;;;60.78;40.73;;;;;;;10.37;100.00;101704.03;1660237;85;21124;-84
2021/10/28 17:44:12;;;;;;;63.55;42.50;;;;;;;10.33;100.00;101710.30;1694471;82;21087;-85
2021/10/28 17:46:43;;;;;;;66.00;43.83;;;;;;;10.29;100.00;101710.55;1719305;81;21049;-84
2021/10/28 17:49:10;;;;;;;59.48;40.50;;;;;;;10.26;100.00;101716.78;1725217;82;21168;-84
2021/10/28 17:51:44;;;;;;;64.82;43.52;;;;;;;10.25;100.00;101717.70;1704917;84;21169;-84
2021/10/28 17:54:14;;;;;;;71.05;43.75;;;;;;;10.21;100.00;101717.03;1657577;85;21089;-86
2021/10/28 17:56:44;;;;;;;64.97;41.48;;;;;;;10.21;100.00;101721.41;1657056;84;21137;-84
2021/10/28 17:59:17;;;;;;;68.33;43.42;;;;;;;10.20;100.00;101719.73;1703880;83;21549;-84
2021/10/28 18:01:43;;;;;;;67.95;44.40;;;;;;;10.18;100.00;101724.17;1706406;82;21061;-84
2021/10/28 18:04:12;;;;;;;62.23;43.17;;;;;;;10.17;100.00;101722.05;1704840;83;21117;-84
2021/10/28 18:06:40;;;;;;;63.63;42.08;;;;;;;10.16;100.00;101720.81;1704441;83;21002;-86
2021/10/28 18:09:07;;;;;;;61.88;41.05;;;;;;;10.15;100.00;101723.03;1705308;83;21072;-83
2021/10/28 18:11:36;;;;;;;58.78;39.33;;;;;;;10.16;100.00;101727.31;1698156;83;21533;-84
2021/10/28 18:14:10;;;;;;;54.20;38.25;;;;;;;10.17;100.00;101717.28;1705998;83;21077;-84
2021/10/28 18:16:33;;;;;;;52.67;38.75;;;;;;;10.20;100.00;101718.43;1703178;83;21816;-85
2021/10/28 18:18:59;;;;;;;58.00;38.38;;;;;;;10.23;100.00;101726.05;1689178;83;21032;-84
2021/10/28 18:21:27;;;;;;;49.58;36.83;;;;;;;10.26;100.00;101720.20;1640652;84;21335;-85
2021/10/28 18:23:57;;;;;;;49.27;34.65;;;;;;;10.29;100.00;101723.12;1684300;83;21088;-85
2021/10/28 18:26:25;;;;;;;53.20;36.77;;;;;;;10.32;100.00;101726.84;1661704;84;22344;-86
2021/10/28 18:28:54;;;;;;;52.35;35.00;;;;;;;10.33;100.00;101727.69;1656659;85;21812;-85
2021/10/28 18:31:21;;;;;;;45.52;34.00;;;;;;;10.36;100.00;101727.50;1656974;84;21669;-86
2021/10/28 18:33:50;;;;;;;56.18;37.95;;;;;;;10.36;100.00;101729.66;1669294;84;21537;-85
2021/10/28 18:36:17;;;;;;;55.88;36.63;;;;;;;10.36;100.00;101734.87;1649672;85;21168;-85
2021/10/28 18:38:46;;;;;;;49.67;35.65;;;;;;;10.36;100.00;101738.77;1657369;84;21717;-85
2021/10/28 18:41:18;;;;;;;50.17;35.45;;;;;;;10.39;100.00;101738.61;1656751;85;21922;-85
2021/10/28 18:43:47;;;;;;;56.48;36.83;;;;;;;10.41;100.00;101734.16;1667911;84;21108;-84
2021/10/28 18:46:21;;;;;;;48.58;34.13;;;;;;;10.45;100.00;101732.22;1672855;84;21008;-84
2021/10/28 18:48:58;;;;;;;47.85;34.05;;;;;;;10.49;100.00;101738.09;1640452;85;22608;-84
2021/10/28 18:51:27;;;;;;;54.67;35.30;;;;;;;10.52;100.00;101741.84;1636630;85;21104;-85
2021/10/28 18:53:54;;;;;;;52.33;35.73;;;;;;;10.53;100.00;101744.83;1629117;86;21092;-85
2021/10/28 18:56:23;;;;;;;68.07;35.65;;;;;;;10.52;100.00;101743.97;1656777;85;21638;-80
2021/10/28 18:58:51;;;;;;;64.77;37.58;;;;;;;10.57;100.00;101749.77;1640674;85;21117;-86
2021/10/28 19:01:20;;;;;;;57.40;37.05;;;;;;;10.71;100.00;101765.89;1655568;83;21038;-87
2021/10/28 19:03:52;;;;;;;74.17;37.40;;;;;;;10.77;100.00;101765.19;1633979;86;21089;-85
2021/10/28 19:06:19;;;;;;;75.45;36.23;;;;;;;10.76;100.00;101765.63;1654512;85;21671;-85
2021/10/28 19:08:47;;;;;;;47.10;35.23;;;;;;;10.77;100.00;101761.27;1627549;86;21131;-86
2021/10/28 19:11:17;;;;;;;51.30;34.48;;;;;;;10.76;100.00;101762.20;1621987;87;21046;-86
2021/10/28 19:13:48;;;;;;;48.17;36.23;;;;;;;10.72;100.00;101758.93;1612675;86;21094;-86
2021/10/28 19:16:16;;;;;;;59.42;37.63;;;;;;;10.69;100.00;101769.07;1585739;89;21110;-86
2021/10/28 19:18:46;;;;;;;46.55;34.98;;;;;;;10.67;100.00;101775.27;1629251;86;21901;-86
2021/10/28 19:21:14;;;;;;;59.03;38.17;;;;;;;10.65;100.00;101771.45;1693211;83;21042;-85
2021/10/28 19:23:44;;;;;;;49.40;36.68;;;;;;;10.65;100.00;101778.45;1690637;82;21069;-86
2021/10/28 19:26:11;;;;;;;51.90;35.13;;;;;;;10.65;100.00;101780.58;1745114;82;21590;-86
2021/10/28 19:28:41;;;;;;;45.25;34.95;;;;;;;10.63;100.00;101781.59;1744861;81;21069;-86
2021/10/28 19:31:18;;;;;;;51.60;36.28;;;;;;;10.60;100.00;101775.25;1704605;83;21819;-85
2021/10/28 19:33:47;;;;;;;50.63;37.17;;;;;;;10.55;100.00;101772.90;1711198;82;21021;-86